Time;durP1;ratioP1;P1;durP2;ratioP2;P2;SDS_P1;SDS_P2;PMS_P1;PMS_P2;Temp;Humidity;BMP_temperature;BMP_pressure;BME280_temperature;BME280_humidity;BME280_pressure;Samples;Min_cycle;Max_cycle;Signal;HPM_P1;HPM_P2
2023/05/12 00:00:13;;;;;;;28.23;25.13;;;;;21.20;100242.00;;;;2079879;28;20232;-50
2023/05/12 00:01:14;;;;;;;30.67;25.70;;;;;21.20;100241.00;;;;2081772;28;20814;-49
2023/05/12 00:02:15;;;;;;;26.97;24.07;;;;;21.20;100243.00;;;;2064854;28;20218;-50
2023/05/12 00:03:15;;;;;;;25.30;21.93;;;;;21.20;100247.00;;;;2070116;28;20291;-50
2023/05/12 00:04:15;;;;;;;24.60;22.00;;;;;21.20;100248.00;;;;2075779;28;20511;-50
2023/05/12 00:05:15;;;;;;;27.53;23.70;;;;;21.20;100242.00;;;;2074191;28;20210;-50
2023/05/12 00:06:16;;;;;;;26.10;21.60;;;;;21.20;100237.00;;;;2072274;28;20241;-49
2023/05/12 00:07:17;;;;;;;26.40;23.60;;;;;21.20;100257.00;;;;2063438;28;20237;-50
2023/05/12 00:08:17;;;;;;;25.37;22.53;;;;;21.20;100245.00;;;;2072625;28;20624;-49
2023/05/12 00:09:17;;;;;;;28.43;23.93;;;;;21.20;100241.00;;;;2074190;28;20817;-50
2023/05/12 00:10:18;;;;;;;25.90;23.03;;;;;21.20;100242.00;;;;2073406;28;20233;-50
2023/05/12 00:11:18;;;;;;;23.67;20.80;;;;;21.20;100245.00;;;;2071104;28;25076;-51
2023/05/12 00:12:18;;;;;;;23.93;21.40;;;;;21.20;100231.00;;;;2070170;28;20242;-49
2023/05/12 00:13:22;;;;;;;22.97;20.00;;;;;21.20;100235.00;;;;2084311;28;20221;-50
2023/05/12 00:14:22;;;;;;;23.25;20.75;;;;;21.20;100231.00;;;;2075163;28;21153;-50
2023/05/12 00:15:22;;;;;;;22.70;19.70;;;;;21.20;100232.00;;;;2074114;28;20224;-49
2023/05/12 00:16:23;;;;;;;24.87;20.00;;;;;21.20;100234.00;;;;2077583;28;20214;-50
2023/05/12 00:17:23;;;;;;;21.07;18.43;;;;;21.20;100231.00;;;;2067007;28;20296;-51
2023/05/12 00:18:24;;;;;;;21.20;18.40;;;;;21.20;100228.00;;;;2072207;28;20210;-50
2023/05/12 00:19:25;;;;;;;21.83;18.40;;;;;21.20;100233.00;;;;2077307;28;20271;-49
2023/05/12 00:20:25;;;;;;;20.97;18.23;;;;;21.20;100227.00;;;;2075986;28;20279;-50
2023/05/12 00:21:25;;;;;;;19.87;17.80;;;;;21.20;100221.00;;;;2063213;28;20206;-50
2023/05/12 00:22:26;;;;;;;20.00;17.07;;;;;21.20;100223.00;;;;2071081;28;20218;-50
2023/05/12 00:23:26;;;;;;;20.93;18.73;;;;;21.20;100218.00;;;;2077080;28;20279;-51
2023/05/12 00:24:27;;;;;;;19.37;17.27;;;;;21.20;100224.00;;;;2077464;28;20240;-50
2023/05/12 00:25:27;;;;;;;20.20;17.73;;;;;21.20;100222.00;;;;2075970;28;20813;-49
2023/05/12 00:26:27;;;;;;;19.60;17.60;;;;;21.20;100214.00;;;;2063269;28;20241;-49
2023/05/12 00:27:30;;;;;;;19.87;16.70;;;;;21.20;100216.00;;;;2072052;28;20225;-50
2023/05/12 00:28:31;;;;;;;18.08;16.15;;;;;21.20;100225.00;;;;2077170;28;20236;-50
2023/05/12 00:29:32;;;;;;;21.23;17.33;;;;;21.20;100210.00;;;;2075857;28;20210;-50
2023/05/12 00:30:32;;;;;;;19.33;17.13;;;;;21.20;100217.00;;;;2073884;28;20240;-50
2023/05/12 00:31:32;;;;;;;19.50;17.43;;;;;21.20;100218.00;;;;2062296;28;20472;-50
2023/05/12 00:32:33;;;;;;;19.33;17.30;;;;;21.20;100227.00;;;;2075436;28;20738;-50
2023/05/12 00:33:33;;;;;;;18.90;16.43;;;;;21.20;100215.00;;;;2077079;28;20216;-50
2023/05/12 00:34:33;;;;;;;19.77;17.67;;;;;21.20;100218.00;;;;2077569;28;20241;-50
2023/05/12 00:35:34;;;;;;;19.43;17.53;;;;;21.20;100216.00;;;;2079076;28;20359;-50
2023/05/12 00:36:34;;;;;;;19.70;17.13;;;;;21.20;100219.00;;;;2063155;28;20214;-51
2023/05/12 00:37:34;;;;;;;16.70;15.00;;;;;21.20;100214.00;;;;2077216;28;20309;-50
2023/05/12 00:38:36;;;;;;;16.40;14.70;;;;;21.20;100213.00;;;;2077103;28;20217;-50
2023/05/12 00:39:36;;;;;;;17.45;15.48;;;;;21.20;100219.00;;;;2076522;28;20221;-50
2023/05/12 00:40:37;;;;;;;17.07;14.83;;;;;21.20;100212.00;;;;2076448;28;20268;-51
2023/05/12 00:41:37;;;;;;;18.80;16.30;;;;;21.20;100219.00;;;;2065124;28;20213;-50
2023/05/12 00:42:37;;;;;;;16.87;15.07;;;;;21.20;100222.00;;;;2077277;28;20302;-51
2023/05/12 00:43:38;;;;;;;16.20;14.50;;;;;21.20;100182.00;;;;2076977;28;20556;-50
2023/05/12 00:44:38;;;;;;;16.80;14.80;;;;;21.10;100215.00;;;;2076909;28;20756;-49
2023/05/12 00:45:38;;;;;;;17.50;14.80;;;;;21.20;100211.00;;;;2077437;28;20669;-50
2023/05/12 00:46:39;;;;;;;17.07;15.27;;;;;21.20;100214.00;;;;2066994;28;20217;-50
2023/05/12 00:47:39;;;;;;;17.60;15.80;;;;;21.20;100219.00;;;;2076357;28;20222;-50
2023/05/12 00:48:39;;;;;;;18.90;16.50;;;;;21.20;100222.00;;;;2075265;28;20221;-49
2023/05/12 00:49:42;;;;;;;18.40;15.80;;;;;21.20;100213.00;;;;2074093;28;20706;-50
2023/05/12 00:50:43;;;;;;;17.05;15.25;;;;;21.10;100209.00;;;;2075771;28;20291;-49
2023/05/12 00:51:43;;;;;;;16.40;14.63;;;;;21.20;100206.00;;;;2066533;28;20335;-50
2023/05/12 00:52:44;;;;;;;17.17;15.33;;;;;21.20;100211.00;;;;2076734;28;20224;-50
2023/05/12 00:53:44;;;;;;;16.70;15.00;;;;;21.20;100209.00;;;;2075537;28;20244;-51
2023/05/12 00:54:44;;;;;;;17.63;14.80;;;;;21.20;100217.00;;;;2076563;28;20263;-51
2023/05/12 00:55:45;;;;;;;15.73;14.13;;;;;21.20;100210.00;;;;2058491;28;20223;-49
2023/05/12 00:56:45;;;;;;;15.43;13.87;;;;;21.10;100213.00;;;;2057600;28;20226;-50
2023/05/12 00:57:45;;;;;;;15.00;13.40;;;;;21.10;100211.00;;;;2076771;28;20221;-50
2023/05/12 00:58:46;;;;;;;15.00;13.40;;;;;21.20;100211.00;;;;2076239;28;20217;-51
2023/05/12 00:59:46;;;;;;;16.80;15.03;;;;;21.20;100212.00;;;;2076450;28;20560;-50
2023/05/12 01:00:46;;;;;;;15.53;13.50;;;;;21.20;100220.00;;;;2076733;28;20252;-51
2023/05/12 01:01:47;;;;;;;15.80;13.67;;;;;21.20;100224.00;;;;2067309;28;20236;-50
2023/05/12 01:02:47;;;;;;;15.23;13.30;;;;;21.20;100213.00;;;;2076265;28;20217;-50
2023/05/12 01:03:48;;;;;;;14.77;13.23;;;;;21.20;100207.00;;;;2076193;28;20722;-51
2023/05/12 01:04:49;;;;;;;13.97;12.57;;;;;21.20;100215.00;;;;2083823;28;20579;-50
2023/05/12 01:05:54;;;;;;;14.83;13.33;;;;;21.20;100202.00;;;;2076484;28;21470;-50
2023/05/12 01:07:22;;;;;;;14.73;13.23;;;;;21.20;100203.00;;;;2058258;28;20217;-49
2023/05/12 01:08:22;;;;;;;15.25;13.10;;;;;21.20;100201.00;;;;2076687;28;20305;-51
2023/05/12 01:09:23;;;;;;;14.17;12.67;;;;;21.20;100201.00;;;;2074149;28;20702;-50
2023/05/12 01:10:23;;;;;;;14.70;13.03;;;;;21.10;100206.00;;;;2072005;28;20230;-50
2023/05/12 01:11:23;;;;;;;14.77;13.20;;;;;21.20;100204.00;;;;2072779;28;20267;-54
2023/05/12 01:12:24;;;;;;;16.03;12.67;;;;;21.20;100218.00;;;;2069783;28;20292;-50
2023/05/12 01:13:26;;;;;;;13.03;11.63;;;;;21.20;100218.00;;;;2076316;28;20296;-49
2023/05/12 01:14:26;;;;;;;13.80;12.27;;;;;21.20;100210.00;;;;2076199;28;20301;-50
2023/05/12 01:15:26;;;;;;;14.03;12.63;;;;;21.10;100207.00;;;;2072770;28;20221;-50
2023/05/12 01:16:30;;;;;;;13.63;12.23;;;;;21.20;100210.00;;;;2066577;28;20217;-51
2023/05/12 01:17:32;;;;;;;15.68;12.65;;;;;21.20;100210.00;;;;2075830;28;20799;-50
2023/05/12 01:18:32;;;;;;;12.52;11.23;;;;;21.10;100204.00;;;;2074851;28;20268;-49
2023/05/12 01:19:41;;;;;;;15.30;12.97;;;;;21.20;100206.00;;;;2075858;28;20688;-50
2023/05/12 01:20:42;;;;;;;13.30;11.95;;;;;21.10;100207.00;;;;2071985;28;21297;-51
2023/05/12 01:21:42;;;;;;;13.27;11.77;;;;;21.10;100210.00;;;;2059357;28;20264;-50
2023/05/12 01:22:43;;;;;;;13.00;11.57;;;;;21.10;100209.00;;;;2072619;28;20291;-49
2023/05/12 01:23:45;;;;;;;13.30;12.00;;;;;21.10;100202.00;;;;2070131;28;20260;-49
2023/05/12 01:24:49;;;;;;;12.13;10.88;;;;;21.20;100212.00;;;;2060352;28;20812;-49
2023/05/12 01:25:50;;;;;;;13.10;11.80;;;;;21.10;100202.00;;;;2074783;28;20236;-50
2023/05/12 01:26:50;;;;;;;13.13;11.83;;;;;21.10;100203.00;;;;2065107;28;20224;-50
2023/05/12 01:27:50;;;;;;;13.33;11.57;;;;;21.10;100203.00;;;;2075417;28;20221;-50
2023/05/12 01:28:51;;;;;;;11.83;10.53;;;;;21.10;100198.00;;;;2075981;28;20233;-49
2023/05/12 01:29:51;;;;;;;12.40;11.10;;;;;21.20;100207.00;;;;2058545;28;20289;-50
2023/05/12 01:30:52;;;;;;;11.13;9.93;;;;;21.10;100207.00;;;;2070023;28;20728;-50
2023/05/12 01:31:52;;;;;;;13.63;12.13;;;;;21.10;100201.00;;;;2074867;28;20247;-50
2023/05/12 01:32:53;;;;;;;11.50;10.30;;;;;21.10;100203.00;;;;2075538;28;20239;-50
2023/05/12 01:33:54;;;;;;;12.90;11.60;;;;;21.10;100209.00;;;;2076336;28;20210;-50
2023/05/12 01:34:54;;;;;;;11.70;10.50;;;;;21.10;100212.00;;;;2073305;28;20663;-50
2023/05/12 01:35:54;;;;;;;11.70;10.50;;;;;21.10;100211.00;;;;2077042;28;20804;-51
2023/05/12 01:36:55;;;;;;;13.07;10.93;;;;;21.10;100211.00;;;;2061117;28;20228;-51
2023/05/12 01:37:55;;;;;;;11.03;9.90;;;;;21.10;100214.00;;;;2068989;28;20249;-50
2023/05/12 01:38:55;;;;;;;11.30;10.10;;;;;21.10;100206.00;;;;2076570;28;20221;-49
2023/05/12 01:39:56;;;;;;;10.87;9.80;;;;;21.10;100210.00;;;;2075136;28;20213;-49
2023/05/12 01:40:56;;;;;;;11.53;10.30;;;;;21.10;100216.00;;;;2076291;28;20248;-50
2023/05/12 01:41:56;;;;;;;10.90;9.80;;;;;21.10;100220.00;;;;2067179;28;20633;-49
2023/05/12 01:42:57;;;;;;;10.50;9.40;;;;;21.10;100209.00;;;;2084611;28;20228;-49
2023/05/12 01:43:57;;;;;;;11.23;9.57;;;;;21.10;100215.00;;;;2081345;28;20220;-50
2023/05/12 01:44:58;;;;;;;10.77;9.33;;;;;21.10;100219.00;;;;2077084;28;20209;-49
2023/05/12 01:45:58;;;;;;;11.07;9.97;;;;;21.10;100222.00;;;;2076314;28;20305;-49
2023/05/12 01:46:58;;;;;;;9.90;8.90;;;;;21.10;100219.00;;;;2066133;28;20197;-50
2023/05/12 01:47:59;;;;;;;10.90;9.80;;;;;21.10;100227.00;;;;2068571;28;20759;-50
2023/05/12 01:48:59;;;;;;;9.60;8.60;;;;;21.10;100222.00;;;;2074925;28;20213;-50
2023/05/12 01:49:59;;;;;;;10.40;9.30;;;;;21.10;100221.00;;;;2075952;28;20236;-50
2023/05/12 01:51:00;;;;;;;9.93;9.00;;;;;21.10;100224.00;;;;2075223;28;21953;-53
2023/05/12 01:52:00;;;;;;;10.10;9.00;;;;;21.10;100231.00;;;;2067194;28;20214;-49
2023/05/12 01:53:01;;;;;;;9.93;8.93;;;;;21.10;100233.00;;;;2076744;28;20224;-50
2023/05/12 01:54:01;;;;;;;10.50;9.40;;;;;21.10;100231.00;;;;2076286;28;20461;-51
2023/05/12 01:55:01;;;;;;;10.13;9.13;;;;;21.10;100230.00;;;;2077400;28;20295;-50
2023/05/12 01:56:02;;;;;;;9.40;8.40;;;;;21.10;100230.00;;;;2077884;28;20260;-50
2023/05/12 01:57:02;;;;;;;9.47;8.53;;;;;21.10;100232.00;;;;2065971;28;20247;-49
2023/05/12 01:58:03;;;;;;;9.33;8.43;;;;;21.10;100235.00;;;;2075844;28;20676;-50
2023/05/12 01:59:03;;;;;;;10.27;9.17;;;;;21.10;100233.00;;;;2076538;28;20213;-50
2023/05/12 02:00:04;;;;;;;9.80;8.50;;;;;21.10;100237.00;;;;2076629;28;20712;-50
2023/05/12 02:01:04;;;;;;;8.93;8.10;;;;;21.10;100241.00;;;;2074915;28;20206;-50
2023/05/12 02:02:05;;;;;;;10.83;8.53;;;;;21.10;100236.00;;;;2066735;28;20461;-49
2023/05/12 02:03:05;;;;;;;9.00;8.10;;;;;21.10;100238.00;;;;2075824;28;20605;-50
2023/05/12 02:04:07;;;;;;;8.43;7.60;;;;;21.10;100239.00;;;;2075690;28;20205;-50
2023/05/12 02:05:08;;;;;;;9.00;8.05;;;;;21.10;100244.00;;;;2074344;28;20205;-50
2023/05/12 02:06:08;;;;;;;8.77;7.80;;;;;21.10;100241.00;;;;2074236;28;20217;-51
2023/05/12 02:07:09;;;;;;;10.23;8.10;;;;;21.10;100245.00;;;;2058884;28;20226;-50
2023/05/12 02:08:10;;;;;;;9.83;7.53;;;;;21.10;100247.00;;;;2075046;28;20228;-51
2023/05/12 02:09:10;;;;;;;8.67;7.77;;;;;21.10;100249.00;;;;2075237;28;20452;-50
2023/05/12 02:10:10;;;;;;;8.37;7.57;;;;;21.10;100250.00;;;;2075249;28;20213;-51
2023/05/12 02:11:11;;;;;;;8.37;7.27;;;;;21.10;100251.00;;;;2074785;28;20216;-50
2023/05/12 02:12:11;;;;;;;8.40;7.60;;;;;21.10;100255.00;;;;2061819;28;20332;-50
2023/05/12 02:13:11;;;;;;;7.93;7.13;;;;;21.10;100252.00;;;;2076794;28;20213;-50
2023/05/12 02:14:12;;;;;;;9.00;7.20;;;;;21.10;100250.00;;;;2075636;28;20224;-50
2023/05/12 02:15:12;;;;;;;8.10;7.30;;;;;21.10;100248.00;;;;2076157;28;20216;-50
2023/05/12 02:16:12;;;;;;;9.10;6.97;;;;;21.10;100251.00;;;;2076482;28;20217;-50
2023/05/12 02:17:13;;;;;;;7.07;6.37;;;;;21.10;100251.00;;;;2065938;28;20241;-51
2023/05/12 02:18:13;;;;;;;6.87;6.10;;;;;21.10;100255.00;;;;2074108;28;20217;-50
2023/05/12 02:19:13;;;;;;;8.90;6.93;;;;;21.10;100258.00;;;;2073870;28;20738;-50
2023/05/12 02:20:14;;;;;;;7.40;6.70;;;;;21.10;100254.00;;;;2075927;28;20209;-50
2023/05/12 02:21:14;;;;;;;6.93;6.23;;;;;21.10;100263.00;;;;2076133;28;20747;-50
2023/05/12 02:22:15;;;;;;;7.27;6.27;;;;;21.10;100262.00;;;;2065402;28;20714;-50
2023/05/12 02:23:15;;;;;;;8.60;7.70;;;;;21.10;100252.00;;;;2076346;28;20301;-50
2023/05/12 02:24:17;;;;;;;6.50;5.82;;;;;21.10;100260.00;;;;2073253;28;20284;-50
2023/05/12 02:25:18;;;;;;;6.90;5.97;;;;;21.10;100262.00;;;;2071288;28;20267;-50
2023/05/12 02:26:18;;;;;;;6.93;6.20;;;;;21.10;100264.00;;;;2075777;28;20224;-49
2023/05/12 02:27:18;;;;;;;9.77;6.67;;;;;21.10;100257.00;;;;2066816;28;20559;-49
2023/05/12 02:28:19;;;;;;;6.53;5.93;;;;;21.10;100265.00;;;;2076825;28;20213;-50
2023/05/12 02:29:19;;;;;;;6.80;6.10;;;;;21.10;100256.00;;;;2072787;28;20203;-51
2023/05/12 02:30:19;;;;;;;7.47;6.50;;;;;21.10;100268.00;;;;2071549;28;20862;-50
2023/05/12 02:31:20;;;;;;;6.40;5.70;;;;;21.10;100261.00;;;;2074578;28;20222;-51
2023/05/12 02:32:20;;;;;;;7.57;6.27;;;;;21.10;100263.00;;;;2060977;28;20296;-50
2023/05/12 02:33:21;;;;;;;6.77;5.90;;;;;21.10;100263.00;;;;2072314;28;20221;-50
2023/05/12 02:34:22;;;;;;;6.25;5.65;;;;;21.10;100262.00;;;;2078207;28;20722;-49
2023/05/12 02:35:22;;;;;;;6.57;5.87;;;;;21.10;100267.00;;;;2078173;28;20232;-50
2023/05/12 02:36:22;;;;;;;5.70;5.03;;;;;21.10;100268.00;;;;2077615;28;20236;-50
2023/05/12 02:37:23;;;;;;;6.40;5.73;;;;;21.10;100270.00;;;;2068420;28;20287;-49
2023/05/12 02:38:23;;;;;;;6.70;6.00;;;;;21.10;100269.00;;;;2077438;28;20225;-50
2023/05/12 02:39:23;;;;;;;6.37;5.73;;;;;21.10;100270.00;;;;2077845;28;20229;-50
2023/05/12 02:40:24;;;;;;;6.10;5.50;;;;;21.10;100269.00;;;;2076640;28;20249;-50
2023/05/12 02:41:24;;;;;;;6.30;5.50;;;;;21.10;100273.00;;;;2076072;28;20231;-52
2023/05/12 02:42:27;;;;;;;6.10;5.57;;;;;21.10;100276.00;;;;2084830;28;20717;-50
2023/05/12 02:43:28;;;;;;;6.15;5.55;;;;;21.10;100263.00;;;;2086740;28;20226;-50
2023/05/12 02:44:28;;;;;;;5.73;5.20;;;;;21.10;100270.00;;;;2074140;28;20237;-50
2023/05/12 02:45:29;;;;;;;5.50;4.70;;;;;21.10;100266.00;;;;2074813;28;20217;-50
2023/05/12 02:46:29;;;;;;;5.73;5.20;;;;;21.10;100269.00;;;;2064735;28;20228;-50
2023/05/12 02:47:31;;;;;;;5.07;4.57;;;;;21.10;100278.00;;;;2077083;28;20955;-50
2023/05/12 02:48:32;;;;;;;4.93;4.53;;;;;20.90;100276.00;;;;2077921;28;20225;-51
2023/05/12 02:49:32;;;;;;;5.87;5.00;;;;;21.10;100266.00;;;;2073785;28;20260;-50
2023/05/12 02:50:32;;;;;;;5.63;4.60;;;;;21.00;100275.00;;;;2076710;28;20585;-51
2023/05/12 02:51:33;;;;;;;5.33;4.83;;;;;21.10;100238.00;;;;2066009;28;20933;-50
2023/05/12 02:52:33;;;;;;;4.70;4.30;;;;;21.10;100273.00;;;;2085133;28;20737;-50
2023/05/12 02:53:33;;;;;;;4.87;4.47;;;;;21.10;100275.00;;;;2084808;28;20554;-51
2023/05/12 02:54:34;;;;;;;4.80;4.37;;;;;21.10;100268.00;;;;2077282;28;20209;-49
2023/05/12 02:55:34;;;;;;;4.83;4.30;;;;;21.00;100273.00;;;;2078185;28;20248;-50
2023/05/12 02:56:35;;;;;;;4.37;3.97;;;;;21.10;100278.00;;;;2066880;28;20630;-50
2023/05/12 02:57:35;;;;;;;4.37;3.97;;;;;21.10;100276.00;;;;2072195;28;20218;-51
2023/05/12 02:58:36;;;;;;;4.70;4.20;;;;;21.10;100275.00;;;;2075553;28;20224;-50
2023/05/12 02:59:36;;;;;;;5.18;4.68;;;;;21.10;100284.00;;;;2076526;28;20213;-49
2023/05/12 03:00:37;;;;;;;4.90;4.40;;;;;21.10;100274.00;;;;2076738;28;20300;-50
2023/05/12 03:01:37;;;;;;;4.87;4.40;;;;;21.00;100278.00;;;;2063705;28;20291;-50
2023/05/12 03:02:38;;;;;;;4.80;4.30;;;;;21.10;100274.00;;;;2075056;28;20871;-51
2023/05/12 03:03:38;;;;;;;5.17;4.67;;;;;20.90;100275.00;;;;2077905;28;20582;-50
2023/05/12 03:04:38;;;;;;;4.23;3.70;;;;;21.10;100277.00;;;;2074121;28;20305;-49
2023/05/12 03:05:39;;;;;;;3.90;3.50;;;;;21.10;100274.00;;;;2078055;28;20248;-50
2023/05/12 03:06:39;;;;;;;4.30;3.90;;;;;21.00;100272.00;;;;2067502;28;20228;-50
2023/05/12 03:07:40;;;;;;;4.13;3.73;;;;;21.10;100269.00;;;;2078132;28;20213;-50
2023/05/12 03:08:40;;;;;;;5.27;4.77;;;;;21.10;100272.00;;;;2076821;28;20260;-51
2023/05/12 03:09:41;;;;;;;4.17;3.77;;;;;21.00;100263.00;;;;2075559;28;20212;-50
2023/05/12 03:10:42;;;;;;;3.80;3.50;;;;;21.10;100270.00;;;;2076548;28;20225;-50
2023/05/12 03:11:43;;;;;;;4.05;3.65;;;;;21.00;100263.00;;;;2068053;28;20351;-50
2023/05/12 03:12:43;;;;;;;3.83;3.53;;;;;21.00;100268.00;;;;2074973;28;20225;-50
2023/05/12 03:13:43;;;;;;;4.00;3.57;;;;;21.00;100276.00;;;;2076500;28;20275;-50
2023/05/12 03:14:44;;;;;;;3.70;3.40;;;;;21.10;100275.00;;;;2077997;28;20320;-50
2023/05/12 03:15:44;;;;;;;3.77;3.43;;;;;21.00;100273.00;;;;2073750;28;20286;-50
2023/05/12 03:16:45;;;;;;;3.73;3.43;;;;;21.00;100271.00;;;;2063079;28;20237;-50
2023/05/12 03:17:45;;;;;;;3.73;3.40;;;;;21.00;100270.00;;;;2083437;28;20221;-49
2023/05/12 03:18:46;;;;;;;3.50;3.20;;;;;21.00;100270.00;;;;2082362;28;20205;-50
2023/05/12 03:19:46;;;;;;;4.20;3.80;;;;;21.10;100274.00;;;;2078087;28;20355;-50
2023/05/12 03:20:47;;;;;;;3.60;3.30;;;;;21.00;100280.00;;;;2076202;28;21028;-50
2023/05/12 03:21:47;;;;;;;4.30;3.40;;;;;21.00;100271.00;;;;2074086;28;20711;-50
2023/05/12 03:22:47;;;;;;;2.93;2.70;;;;;21.00;100286.00;;;;2083792;28;20214;-49
2023/05/12 03:23:48;;;;;;;4.47;3.83;;;;;21.00;100271.00;;;;2086835;28;20209;-50
2023/05/12 03:24:48;;;;;;;3.33;3.03;;;;;21.00;100278.00;;;;2071529;28;20210;-49
2023/05/12 03:25:48;;;;;;;3.97;3.57;;;;;21.00;100274.00;;;;2073917;28;20236;-50
2023/05/12 03:26:49;;;;;;;3.77;3.07;;;;;21.00;100279.00;;;;2064587;28;20222;-51
2023/05/12 03:27:49;;;;;;;4.50;3.40;;;;;21.00;100282.00;;;;2082145;28;20217;-50
2023/05/12 03:28:49;;;;;;;3.47;3.17;;;;;21.00;100281.00;;;;2081791;28;20209;-51
2023/05/12 03:29:50;;;;;;;3.43;3.10;;;;;21.00;100280.00;;;;2076622;28;20244;-49
2023/05/12 03:30:51;;;;;;;3.70;3.27;;;;;21.00;100280.00;;;;2077603;28;20213;-50
2023/05/12 03:31:51;;;;;;;4.40;3.13;;;;;21.00;100276.00;;;;2073708;28;20544;-50
2023/05/12 03:32:51;;;;;;;3.30;3.00;;;;;21.00;100278.00;;;;2083202;28;20314;-50
2023/05/12 03:33:52;;;;;;;3.40;2.73;;;;;21.00;100283.00;;;;2078648;28;20217;-50
2023/05/12 03:34:52;;;;;;;3.30;2.87;;;;;21.00;100286.00;;;;2075934;28;20217;-50
2023/05/12 03:35:52;;;;;;;3.77;3.43;;;;;21.00;100281.00;;;;2077519;28;20218;-50
2023/05/12 03:36:53;;;;;;;3.20;2.90;;;;;21.00;100288.00;;;;2063233;28;20766;-50
2023/05/12 03:37:53;;;;;;;3.90;3.20;;;;;21.00;100279.00;;;;2077615;28;20217;-50
2023/05/12 03:38:53;;;;;;;4.33;3.27;;;;;21.00;100288.00;;;;2077572;28;20213;-50
2023/05/12 03:39:55;;;;;;;3.37;3.07;;;;;21.00;100287.00;;;;2076794;28;20244;-51
2023/05/12 03:41:05;;;;;;;3.38;3.08;;;;;21.00;100284.00;;;;2085183;28;20262;-50
2023/05/12 03:42:05;;;;;;;3.78;3.38;;;;;21.00;100281.00;;;;2064997;28;20213;-50
2023/05/12 03:43:05;;;;;;;3.40;3.10;;;;;21.00;100285.00;;;;2069536;28;20214;-51
2023/05/12 03:44:07;;;;;;;3.50;3.20;;;;;21.00;100281.00;;;;2076316;28;20827;-50
2023/05/12 03:45:08;;;;;;;2.60;2.40;;;;;21.00;100283.00;;;;2076840;28;20217;-50
2023/05/12 03:46:08;;;;;;;3.37;3.07;;;;;21.00;100285.00;;;;2070958;28;20241;-51
2023/05/12 03:47:08;;;;;;;2.97;2.70;;;;;21.00;100290.00;;;;2067236;28;20456;-50
2023/05/12 03:48:09;;;;;;;2.70;2.50;;;;;21.00;100288.00;;;;2070632;28;20617;-49
2023/05/12 03:49:10;;;;;;;3.70;2.90;;;;;21.00;100287.00;;;;2076463;28;20589;-50
2023/05/12 03:50:10;;;;;;;2.97;2.70;;;;;21.00;100287.00;;;;2076829;28;20221;-50
2023/05/12 03:51:11;;;;;;;4.93;3.07;;;;;21.00;100293.00;;;;2076582;28;20213;-50
2023/05/12 03:52:11;;;;;;;3.00;2.50;;;;;21.00;100291.00;;;;2066763;28;20213;-50
2023/05/12 03:53:11;;;;;;;2.30;2.10;;;;;21.00;100287.00;;;;2071235;28;20902;-50
2023/05/12 03:54:12;;;;;;;3.13;2.67;;;;;21.00;100280.00;;;;2076411;28;20260;-51
2023/05/12 03:55:12;;;;;;;3.10;2.50;;;;;21.00;100294.00;;;;2075245;28;20222;-51
2023/05/12 03:56:14;;;;;;;2.90;2.60;;;;;21.00;100252.00;;;;2076180;28;20220;-51
2023/05/12 03:57:14;;;;;;;3.88;2.75;;;;;21.00;100292.00;;;;2074071;28;20221;-50
2023/05/12 03:58:15;;;;;;;3.00;2.60;;;;;21.00;100288.00;;;;2082634;28;20705;-51
2023/05/12 03:59:15;;;;;;;2.77;2.53;;;;;21.10;100283.00;;;;2070373;28;20213;-50
2023/05/12 04:00:16;;;;;;;2.67;2.47;;;;;21.10;100283.00;;;;2075464;28;20202;-50
2023/05/12 04:01:16;;;;;;;2.47;2.27;;;;;21.10;100283.00;;;;2077453;28;20228;-51
2023/05/12 04:02:16;;;;;;;3.03;2.47;;;;;21.10;100288.00;;;;2081124;28;20538;-50
2023/05/12 04:03:17;;;;;;;3.23;2.73;;;;;21.10;100283.00;;;;2086079;28;21167;-50
2023/05/12 04:04:18;;;;;;;4.27;3.33;;;;;21.10;100287.00;;;;2077203;28;20752;-49
2023/05/12 04:05:18;;;;;;;4.50;2.97;;;;;21.10;100288.00;;;;2075258;28;20214;-49
2023/05/12 04:06:18;;;;;;;2.57;2.37;;;;;21.10;100289.00;;;;2077604;28;20213;-50
2023/05/12 04:07:19;;;;;;;4.43;2.87;;;;;21.10;100290.00;;;;2065363;28;20221;-50
2023/05/12 04:08:19;;;;;;;2.63;2.43;;;;;21.10;100286.00;;;;2076985;28;20210;-51
2023/05/12 04:09:20;;;;;;;3.30;2.97;;;;;21.10;100293.00;;;;2077204;28;20213;-50
2023/05/12 04:10:21;;;;;;;4.50;2.67;;;;;21.10;100290.00;;;;2076168;28;20220;-49
2023/05/12 04:11:22;;;;;;;2.90;2.50;;;;;21.10;100296.00;;;;2074859;28;20260;-49
2023/05/12 04:12:22;;;;;;;3.35;2.40;;;;;21.20;100302.00;;;;2070519;28;20456;-48
2023/05/12 04:13:26;;;;;;;5.80;3.10;;;;;21.10;100294.00;;;;2084438;28;20245;-49
2023/05/12 04:14:26;;;;;;;2.80;2.50;;;;;21.20;100299.00;;;;2076319;28;20217;-49
2023/05/12 04:15:27;;;;;;;4.80;2.40;;;;;21.20;100304.00;;;;2077061;28;20209;-50
2023/05/12 04:16:27;;;;;;;5.40;2.63;;;;;21.30;100308.00;;;;2068726;28;20241;-50
2023/05/12 04:17:27;;;;;;;6.13;2.97;;;;;21.20;100305.00;;;;2082501;28;20266;-49
2023/05/12 04:18:28;;;;;;;5.30;2.30;;;;;21.10;100303.00;;;;2087987;28;20208;-51
2023/05/12 04:19:28;;;;;;;3.30;2.73;;;;;21.10;100298.00;;;;2078350;28;20213;-49
2023/05/12 04:20:29;;;;;;;3.37;2.40;;;;;21.10;100302.00;;;;2077039;28;20220;-50
2023/05/12 04:21:30;;;;;;;6.90;2.40;;;;;21.10;100304.00;;;;2066085;28;20210;-50
2023/05/12 04:22:30;;;;;;;3.58;2.40;;;;;21.10;100298.00;;;;2071560;28;20217;-50
2023/05/12 04:23:31;;;;;;;2.73;2.23;;;;;21.10;100307.00;;;;2076873;28;20206;-49
2023/05/12 04:24:31;;;;;;;2.10;1.80;;;;;21.10;100309.00;;;;2076828;28;20213;-50
2023/05/12 04:25:31;;;;;;;3.43;2.20;;;;;21.10;100312.00;;;;2077520;28;20218;-49
2023/05/12 04:26:32;;;;;;;2.63;2.10;;;;;21.10;100311.00;;;;2065719;28;20289;-55
2023/05/12 04:27:32;;;;;;;2.87;2.03;;;;;21.10;100316.00;;;;2076268;28;21179;-53
2023/05/12 04:28:33;;;;;;;3.43;2.03;;;;;21.00;100316.00;;;;2072403;28;20245;-49
2023/05/12 04:29:33;;;;;;;2.50;2.00;;;;;21.10;100312.00;;;;2081321;28;20732;-48
2023/05/12 04:30:33;;;;;;;5.07;2.20;;;;;21.10;100315.00;;;;2080259;28;20760;-49
2023/05/12 04:31:34;;;;;;;3.60;1.80;;;;;21.10;100315.00;;;;2065705;28;20214;-50
2023/05/12 04:32:35;;;;;;;2.43;2.23;;;;;21.00;100317.00;;;;2082547;28;20217;-51
2023/05/12 04:33:35;;;;;;;3.60;2.13;;;;;21.10;100323.00;;;;2082572;28;20209;-51
2023/05/12 04:34:35;;;;;;;2.57;2.17;;;;;21.10;100320.00;;;;2077266;28;20459;-49
2023/05/12 04:35:36;;;;;;;2.93;2.10;;;;;21.00;100319.00;;;;2076576;28;20217;-50
2023/05/12 04:36:36;;;;;;;3.53;1.80;;;;;21.10;100326.00;;;;2061726;28;20219;-50
2023/05/12 04:37:36;;;;;;;2.53;1.90;;;;;21.10;100330.00;;;;2083487;28;20279;-51
2023/05/12 04:38:37;;;;;;;3.63;2.17;;;;;21.10;100326.00;;;;2081700;28;20331;-51
2023/05/12 04:39:37;;;;;;;3.50;2.53;;;;;21.10;100332.00;;;;2075889;28;20209;-51
2023/05/12 04:40:37;;;;;;;2.03;1.90;;;;;21.10;100325.00;;;;2075967;28;20225;-51
2023/05/12 04:41:38;;;;;;;2.93;2.10;;;;;21.10;100326.00;;;;2069631;28;20213;-51
2023/05/12 04:42:38;;;;;;;2.13;1.93;;;;;21.10;100325.00;;;;2089484;28;20239;-48
2023/05/12 04:43:38;;;;;;;2.63;2.20;;;;;21.10;100335.00;;;;2081766;28;20217;-50
2023/05/12 04:44:38;;;;;;;2.43;2.13;;;;;21.10;100339.00;;;;2081049;28;20220;-51
2023/05/12 04:45:39;;;;;;;2.73;2.20;;;;;21.10;100339.00;;;;2077096;28;20312;-50
2023/05/12 04:46:39;;;;;;;3.90;3.50;;;;;21.10;100343.00;;;;2069103;28;20300;-51
2023/05/12 04:47:39;;;;;;;4.70;3.63;;;;;21.10;100339.00;;;;2081379;28;20217;-50
2023/05/12 04:48:42;;;;;;;5.00;4.27;;;;;21.10;100350.00;;;;2082203;28;20232;-51
2023/05/12 04:49:42;;;;;;;5.85;4.47;;;;;21.10;100339.00;;;;2071851;28;20289;-50
2023/05/12 04:50:42;;;;;;;7.50;5.40;;;;;21.10;100340.00;;;;2070336;28;20226;-49
2023/05/12 04:51:43;;;;;;;8.10;7.23;;;;;21.10;100342.00;;;;2064559;28;20248;-49
2023/05/12 04:52:43;;;;;;;8.90;6.90;;;;;21.10;100346.00;;;;2076312;28;20300;-51
2023/05/12 04:53:44;;;;;;;10.03;8.73;;;;;21.10;100345.00;;;;2075725;28;20211;-51
2023/05/12 04:54:45;;;;;;;12.02;10.50;;;;;21.10;100347.00;;;;2076410;28;20304;-49
2023/05/12 04:55:45;;;;;;;14.60;12.47;;;;;21.10;100354.00;;;;2070311;28;20217;-49
2023/05/12 04:56:45;;;;;;;13.00;10.83;;;;;21.10;100354.00;;;;2064960;28;20236;-51